createdAt,value
2024-03-20T00:01:38.645Z,58.90
2024-03-20T00:04:12.666Z,59.90
2024-03-20T00:06:44.215Z,60.66
2024-03-20T00:09:15.980Z,65.81
2024-03-20T00:11:48.611Z,67.39
2024-03-20T00:14:20.110Z,58.19
2024-03-20T00:16:52.366Z,51.64
2024-03-20T00:19:24.037Z,52.71
2024-03-20T00:21:55.608Z,54.84
2024-03-20T00:24:27.150Z,56.64
2024-03-20T00:26:59.111Z,58.03
2024-03-20T00:29:30.694Z,59.23
2024-03-20T00:32:02.228Z,60.16
2024-03-20T00:34:33.776Z,61.12
2024-03-20T00:37:05.355Z,66.27
2024-03-20T00:39:37.295Z,67.06
2024-03-20T00:42:09.056Z,57.78
2024-03-20T00:44:40.610Z,52.15
2024-03-20T00:47:12.166Z,53.29
2024-03-20T00:49:43.722Z,55.00
2024-03-20T00:52:16.916Z,56.92
2024-03-20T00:54:48.757Z,58.36
2024-03-20T00:57:20.654Z,59.56
2024-03-20T00:59:52.941Z,60.44
2024-03-20T01:02:24.360Z,61.46
2024-03-20T01:04:55.913Z,66.92
2024-03-20T01:07:27.472Z,66.61
2024-03-20T01:09:59.232Z,57.01
2024-03-20T01:12:32.014Z,51.98
2024-03-20T01:15:03.575Z,53.65
2024-03-20T01:17:35.945Z,56.10
2024-03-20T01:20:12.619Z,58.26
2024-03-20T01:22:44.178Z,59.81
2024-03-20T01:25:15.741Z,61.16
2024-03-20T01:27:47.906Z,65.42
2024-03-20T01:30:19.497Z,65.47
2024-03-20T01:32:51.424Z,56.48
2024-03-20T01:35:22.971Z,52.60
2024-03-20T01:37:54.938Z,54.27
2024-03-20T01:40:25.262Z,56.42
2024-03-20T01:42:58.525Z,57.56
2024-03-20T01:45:30.419Z,59.51
2024-03-20T01:48:01.976Z,60.85
2024-03-20T01:50:33.549Z,61.68
2024-03-20T01:53:06.722Z,66.96
2024-03-20T01:55:39.095Z,65.96
2024-03-20T01:58:10.856Z,55.84
2024-03-20T02:00:42.410Z,52.93
2024-03-20T02:03:18.541Z,54.88
2024-03-20T02:06:42.660Z,56.84
2024-03-20T02:09:14.846Z,58.28
2024-03-20T02:11:46.385Z,60.02
2024-03-20T02:14:17.938Z,61.18
2024-03-20T02:16:49.494Z,66.05
2024-03-20T02:19:21.048Z,66.19
2024-03-20T02:21:52.600Z,57.12
2024-03-20T02:24:24.185Z,53.20
2024-03-20T02:26:55.714Z,54.94
2024-03-20T02:29:27.277Z,56.71
2024-03-20T02:31:58.820Z,58.19
2024-03-20T02:34:30.374Z,59.71
2024-03-20T02:37:01.933Z,60.58
2024-03-20T02:39:33.485Z,61.56
2024-03-20T02:42:05.400Z,67.35
2024-03-20T02:44:37.008Z,66.83
2024-03-20T02:47:10.617Z,56.92
2024-03-20T02:49:42.370Z,52.70
2024-03-20T02:52:14.538Z,54.28
2024-03-20T02:54:46.093Z,56.64
2024-03-20T02:57:17.648Z,58.39
2024-03-20T02:59:49.002Z,59.74
2024-03-20T03:02:20.849Z,60.72
2024-03-20T03:04:52.521Z,61.84
2024-03-20T03:07:27.349Z,67.69
2024-03-20T03:09:59.315Z,66.32
2024-03-20T03:12:29.646Z,57.36
2024-03-20T03:15:07.071Z,52.95
2024-03-20T03:17:40.745Z,54.09
2024-03-20T03:20:15.854Z,55.90
2024-03-20T03:22:49.587Z,57.50
2024-03-20T03:25:21.344Z,58.85
2024-03-20T03:27:52.898Z,60.07
2024-03-20T03:30:24.868Z,60.97
2024-03-20T03:32:56.414Z,65.68
2024-03-20T03:35:27.976Z,67.27
2024-03-20T03:37:59.305Z,58.31
2024-03-20T03:40:30.894Z,51.80
2024-03-20T03:43:02.438Z,52.92
2024-03-20T03:45:33.989Z,55.21
2024-03-20T03:48:06.264Z,56.93
2024-03-20T03:50:37.714Z,58.40
2024-03-20T03:53:09.266Z,59.45
2024-03-20T03:55:40.825Z,60.29
2024-03-20T03:58:12.888Z,61.38
2024-03-20T04:00:43.113Z,67.03
2024-03-20T04:03:14.694Z,69.21
2024-03-20T04:05:46.845Z,58.61
2024-03-20T04:08:16.971Z,51.45
2024-03-20T04:10:49.332Z,52.38
2024-03-20T04:13:20.894Z,55.14
2024-03-20T04:15:54.057Z,56.95
2024-03-20T04:18:25.636Z,58.30
2024-03-20T04:20:57.190Z,59.56
2024-03-20T04:23:29.362Z,60.68
2024-03-20T04:25:59.497Z,61.75
2024-03-20T04:28:31.040Z,61.59
2024-03-20T04:31:02.597Z,68.40
2024-03-20T04:33:34.149Z,68.35
2024-03-20T04:36:09.550Z,59.27
2024-03-20T04:38:40.953Z,51.67
2024-03-20T04:41:14.210Z,52.28
2024-03-20T04:43:45.692Z,54.44
2024-03-20T04:46:17.657Z,56.28
2024-03-20T04:48:49.217Z,57.59
2024-03-20T04:51:20.771Z,58.89
2024-03-20T04:53:53.223Z,59.99
2024-03-20T04:56:25.109Z,60.94
2024-03-20T04:58:56.669Z,61.93
2024-03-20T05:01:28.423Z,67.88
2024-03-20T05:03:59.979Z,68.02
2024-03-20T05:06:31.771Z,59.46
2024-03-20T05:09:03.497Z,52.81
2024-03-20T05:11:35.677Z,53.25
2024-03-20T05:14:07.421Z,55.34
2024-03-20T05:16:40.019Z,56.38
2024-03-20T05:19:13.608Z,58.35
2024-03-20T05:21:45.161Z,59.54
2024-03-20T05:24:17.131Z,61.17
2024-03-20T05:26:49.298Z,66.41
2024-03-20T05:29:21.930Z,66.38
2024-03-20T05:31:55.273Z,57.16
2024-03-20T05:34:26.829Z,52.05
2024-03-20T05:36:58.381Z,53.59
2024-03-20T05:39:30.451Z,55.89
2024-03-20T05:42:02.309Z,57.89
2024-03-20T05:44:33.875Z,59.19
2024-03-20T05:47:05.994Z,60.42
2024-03-20T05:49:36.566Z,61.71
2024-03-20T05:52:12.766Z,61.58
2024-03-20T05:54:45.420Z,69.03
2024-03-20T05:57:16.965Z,68.29
2024-03-20T05:59:49.133Z,58.80
2024-03-20T06:02:20.687Z,52.70
2024-03-20T06:04:52.446Z,53.83
2024-03-20T06:07:24.004Z,56.14
2024-03-20T06:09:55.563Z,57.86
2024-03-20T06:12:28.784Z,59.30
2024-03-20T06:15:00.344Z,60.57
2024-03-20T06:17:31.868Z,61.58
2024-03-20T06:20:06.994Z,67.27
2024-03-20T06:22:40.597Z,66.74
2024-03-20T06:25:14.118Z,57.79
2024-03-20T06:27:46.074Z,53.03
2024-03-20T06:30:16.874Z,54.48
2024-03-20T06:32:49.024Z,55.84
2024-03-20T06:35:20.685Z,57.70
2024-03-20T06:37:52.297Z,59.02
2024-03-20T06:40:28.021Z,60.27
2024-03-20T06:43:00.940Z,61.28
2024-03-20T06:45:35.935Z,66.81
2024-03-20T06:48:09.392Z,66.18
2024-03-20T06:50:41.546Z,56.68
2024-03-20T06:53:13.100Z,52.90
2024-03-20T06:55:46.536Z,53.88
2024-03-20T06:58:18.049Z,55.59
2024-03-20T07:00:49.607Z,56.94
2024-03-20T07:03:21.160Z,58.34
2024-03-20T07:05:53.060Z,59.46
2024-03-20T07:08:26.112Z,60.28
2024-03-20T07:10:58.084Z,61.38
2024-03-20T07:13:29.928Z,60.83
2024-03-20T07:15:59.816Z,60.00
2024-03-20T07:18:31.392Z,59.56
2024-03-20T07:21:02.742Z,60.93
2024-03-20T07:23:34.217Z,61.34
2024-03-20T07:26:07.457Z,65.23
2024-03-20T07:28:39.374Z,65.18
2024-03-20T07:31:09.516Z,55.58
2024-03-20T07:33:41.052Z,52.03
2024-03-20T07:36:12.608Z,52.78
2024-03-20T07:38:44.159Z,54.32
2024-03-20T07:41:14.293Z,55.97
2024-03-20T07:43:46.860Z,56.55
2024-03-20T07:46:19.442Z,58.05
2024-03-20T07:48:51.636Z,58.79
2024-03-20T07:51:23.405Z,58.88
2024-03-20T07:53:55.131Z,58.46
2024-03-20T07:56:27.120Z,58.40
2024-03-20T07:58:58.650Z,58.47
2024-03-20T08:01:30.221Z,59.85
2024-03-20T08:04:01.563Z,58.99
2024-03-20T08:06:32.910Z,59.29
2024-03-20T08:09:05.238Z,59.88
2024-03-20T08:11:37.820Z,60.00
2024-03-20T08:14:10.851Z,60.00
2024-03-20T08:16:43.227Z,59.65
2024-03-20T08:19:14.781Z,59.53
2024-03-20T08:21:46.631Z,58.55
2024-03-20T08:24:19.054Z,59.43
2024-03-20T08:26:51.088Z,58.85
2024-03-20T08:29:22.645Z,58.28
2024-03-20T08:31:54.624Z,58.59
2024-03-20T08:34:26.984Z,58.12
2024-03-20T08:36:58.584Z,58.02
2024-03-20T08:39:30.100Z,57.47
2024-03-20T08:42:02.939Z,57.39
2024-03-20T08:44:34.845Z,57.11
2024-03-20T08:47:07.222Z,56.54
2024-03-20T08:49:39.313Z,56.03
2024-03-20T08:52:13.404Z,56.84
2024-03-20T08:54:45.588Z,56.93
2024-03-20T08:57:17.740Z,55.21
2024-03-20T08:59:49.913Z,55.33
2024-03-20T09:02:21.591Z,54.97
2024-03-20T09:04:53.223Z,54.56
2024-03-20T09:07:24.550Z,53.28
2024-03-20T09:09:55.923Z,52.98
2024-03-20T09:12:27.482Z,53.13
2024-03-20T09:14:59.045Z,52.15
2024-03-20T09:17:30.684Z,51.32
2024-03-20T09:20:05.154Z,51.96
2024-03-20T09:22:36.781Z,50.75
2024-03-20T09:25:07.638Z,50.46
2024-03-20T09:27:39.231Z,50.76
2024-03-20T09:30:15.314Z,51.28
2024-03-20T09:32:48.156Z,50.44
2024-03-20T09:35:19.617Z,49.79
2024-03-20T09:37:55.073Z,49.12
2024-03-20T09:40:29.005Z,46.91
2024-03-20T09:43:00.450Z,46.08
2024-03-20T09:45:32.481Z,45.91
2024-03-20T09:48:04.000Z,45.89
2024-03-20T09:50:39.773Z,46.62
2024-03-20T09:53:11.801Z,47.63
2024-03-20T09:55:46.049Z,46.69
2024-03-20T09:58:17.791Z,44.72
2024-03-20T10:00:50.101Z,44.68
2024-03-20T10:03:24.932Z,44.32
2024-03-20T10:05:56.798Z,43.80
2024-03-20T10:08:26.675Z,42.63
2024-03-20T10:10:59.147Z,42.22
2024-03-20T10:13:31.442Z,40.85
2024-03-20T10:16:22.268Z,40.15
2024-03-20T10:18:58.102Z,41.21
2024-03-20T10:21:31.296Z,41.57
2024-03-20T10:24:03.055Z,41.58
2024-03-20T10:26:34.954Z,41.56
2024-03-20T10:29:15.834Z,40.65
2024-03-20T10:31:54.657Z,37.69
2024-03-20T10:34:27.967Z,36.17
2024-03-20T10:37:00.289Z,35.51
2024-03-20T10:39:33.397Z,35.99
2024-03-20T10:42:07.741Z,36.95
2024-03-20T10:44:39.992Z,36.39
2024-03-20T10:47:14.110Z,37.24
2024-03-20T10:49:48.600Z,35.72
2024-03-20T10:52:20.710Z,34.63
2024-03-20T10:54:53.954Z,34.17
2024-03-20T10:57:25.990Z,35.14
2024-03-20T11:00:01.488Z,35.60
2024-03-20T11:02:33.247Z,34.36
2024-03-20T11:05:06.779Z,34.64
2024-03-20T11:07:40.251Z,35.04
2024-03-20T11:10:23.630Z,35.47
2024-03-20T11:12:59.134Z,34.96
2024-03-20T11:15:33.349Z,32.68
2024-03-20T11:18:13.306Z,30.28
2024-03-20T11:20:46.284Z,30.14
2024-03-20T11:23:28.622Z,29.69
2024-03-20T11:26:00.485Z,27.93
2024-03-20T11:28:32.061Z,27.95
2024-03-20T11:31:04.332Z,28.20
2024-03-20T11:33:36.159Z,27.86
2024-03-20T11:36:10.499Z,25.95
2024-03-20T11:38:42.273Z,24.89
2024-03-20T11:41:17.992Z,25.13
2024-03-20T11:43:50.371Z,25.58
2024-03-20T11:46:22.752Z,25.33
2024-03-20T11:48:56.188Z,23.80
2024-03-20T11:51:29.544Z,22.34
2024-03-20T11:54:01.101Z,22.01
2024-03-20T11:56:32.786Z,20.44
2024-03-20T11:59:04.821Z,20.09
2024-03-20T12:01:38.014Z,20.25
2024-03-20T12:04:12.402Z,19.09
2024-03-20T12:06:44.019Z,17.71
2024-03-20T12:09:18.857Z,16.97
2024-03-20T12:11:50.380Z,16.90
2024-03-20T12:14:21.953Z,16.60
2024-03-20T12:16:54.931Z,15.78
2024-03-20T12:19:26.692Z,15.78
2024-03-20T12:21:58.251Z,15.39
2024-03-20T12:24:29.799Z,14.86
2024-03-20T12:27:01.562Z,14.85
2024-03-20T12:29:33.626Z,14.26
2024-03-20T12:32:06.021Z,14.19
2024-03-20T12:34:38.440Z,14.47
2024-03-20T12:37:12.498Z,14.29
2024-03-20T12:39:46.053Z,14.08
2024-03-20T12:42:17.453Z,13.96
2024-03-20T12:44:49.007Z,14.61
2024-03-20T12:47:21.172Z,14.83
2024-03-20T12:49:54.161Z,14.82
2024-03-20T12:52:26.747Z,15.10
2024-03-20T12:54:59.810Z,15.24
2024-03-20T12:57:31.492Z,15.19
2024-03-20T13:00:03.476Z,14.68
2024-03-20T13:02:36.036Z,14.79
2024-03-20T13:05:10.742Z,15.37
2024-03-20T13:07:42.424Z,15.24
2024-03-20T13:10:14.957Z,15.66
2024-03-20T13:12:47.093Z,16.40
2024-03-20T13:15:19.705Z,16.23
2024-03-20T13:17:52.137Z,15.98
2024-03-20T13:20:24.517Z,15.95
2024-03-20T13:22:56.061Z,16.31
2024-03-20T13:25:31.513Z,16.33
2024-03-20T13:28:04.587Z,16.53
2024-03-20T13:30:36.055Z,17.16
2024-03-20T13:33:08.067Z,18.19
2024-03-20T13:35:42.035Z,19.15
2024-03-20T13:38:20.551Z,19.39
2024-03-20T13:41:02.966Z,19.34
2024-03-20T13:43:52.747Z,19.06
2024-03-20T13:46:24.302Z,18.59
2024-03-20T13:48:56.061Z,19.27
2024-03-20T13:51:28.027Z,20.25
2024-03-20T13:53:59.582Z,20.90
2024-03-20T13:56:31.340Z,21.54
2024-03-20T13:59:03.309Z,22.39
2024-03-20T14:01:37.297Z,23.17
2024-03-20T14:04:09.691Z,23.33
2024-03-20T14:06:41.863Z,23.58
2024-03-20T14:09:14.447Z,23.81
2024-03-20T14:11:46.005Z,24.17
2024-03-20T14:14:17.761Z,24.88
2024-03-20T14:16:49.317Z,25.28
2024-03-20T14:19:20.870Z,25.36
2024-03-20T14:21:53.453Z,25.02
2024-03-20T14:24:26.438Z,25.62
2024-03-20T14:26:57.817Z,26.45
2024-03-20T14:29:30.484Z,27.19
2024-03-20T14:32:02.135Z,27.41
2024-03-20T14:34:33.685Z,27.86
2024-03-20T14:37:05.707Z,28.25
2024-03-20T14:39:37.858Z,28.88
2024-03-20T14:42:10.012Z,29.43
2024-03-20T14:44:41.552Z,29.69
2024-03-20T14:47:16.338Z,30.14
2024-03-20T14:49:49.218Z,30.78
2024-03-20T14:52:21.520Z,31.57
2024-03-20T14:54:53.604Z,32.16
2024-03-20T14:57:25.682Z,32.57
2024-03-20T14:59:57.388Z,32.99
2024-03-20T15:02:30.983Z,33.20
2024-03-20T15:05:02.597Z,33.51
2024-03-20T15:07:34.166Z,34.08
2024-03-20T15:10:06.741Z,34.18
2024-03-20T15:12:38.294Z,33.85
2024-03-20T15:15:13.511Z,33.94
2024-03-20T15:17:47.079Z,34.96
2024-03-20T15:20:18.658Z,34.87
2024-03-20T15:22:50.563Z,34.66
2024-03-20T15:25:22.754Z,34.02
2024-03-20T15:27:55.015Z,34.85
2024-03-20T15:30:27.366Z,34.99
2024-03-20T15:32:59.333Z,34.82
2024-03-20T15:35:31.812Z,35.46
2024-03-20T15:38:03.261Z,35.20
2024-03-20T15:40:35.027Z,35.23
2024-03-20T15:43:09.261Z,35.85
2024-03-20T15:45:40.936Z,36.33
2024-03-20T15:48:12.964Z,36.51
2024-03-20T15:50:44.520Z,36.41
2024-03-20T15:53:18.187Z,36.58
2024-03-20T15:55:49.683Z,36.58
2024-03-20T15:58:21.232Z,37.18
2024-03-20T16:00:52.813Z,37.01
2024-03-20T16:03:25.367Z,37.70
2024-03-20T16:06:00.873Z,37.76
2024-03-20T16:08:33.195Z,37.98
2024-03-20T16:11:05.912Z,37.77
2024-03-20T16:13:38.294Z,37.97
2024-03-20T16:16:17.985Z,38.09
2024-03-20T16:18:49.876Z,39.39
2024-03-20T16:21:22.020Z,39.75
2024-03-20T16:23:55.423Z,40.51
2024-03-20T16:26:27.179Z,40.89
2024-03-20T16:28:58.736Z,41.16
2024-03-20T16:31:30.651Z,41.75
2024-03-20T16:34:02.262Z,42.09
2024-03-20T16:36:39.134Z,42.28
2024-03-20T16:39:12.229Z,42.57
2024-03-20T16:41:43.882Z,42.71
2024-03-20T16:44:15.445Z,42.94
2024-03-20T16:46:45.362Z,43.56
2024-03-20T16:49:17.935Z,43.88
2024-03-20T16:51:50.113Z,44.43
2024-03-20T16:54:21.656Z,44.84
2024-03-20T16:56:53.208Z,44.99
2024-03-20T16:59:25.818Z,45.64
2024-03-20T17:01:59.392Z,45.88
2024-03-20T17:04:31.767Z,46.36
2024-03-20T17:07:07.152Z,46.89
2024-03-20T17:09:40.309Z,47.48
2024-03-20T17:12:13.022Z,47.78
2024-03-20T17:14:47.404Z,48.40
2024-03-20T17:17:19.777Z,48.77
2024-03-20T17:19:51.333Z,49.16
2024-03-20T17:22:23.095Z,49.78
2024-03-20T17:24:55.928Z,50.37
2024-03-20T17:27:27.434Z,50.58
2024-03-20T17:29:58.991Z,50.51
2024-03-20T17:32:31.381Z,50.93
2024-03-20T17:35:03.131Z,51.48
2024-03-20T17:37:35.505Z,51.74
2024-03-20T17:40:11.203Z,52.44
2024-03-20T17:42:43.121Z,52.58
2024-03-20T17:45:16.051Z,52.59
2024-03-20T17:47:47.454Z,52.96
2024-03-20T17:50:19.013Z,53.13
2024-03-20T17:52:49.135Z,53.42
2024-03-20T17:55:21.099Z,53.00
2024-03-20T17:57:52.386Z,53.65
2024-03-20T18:00:24.420Z,54.09
2024-03-20T18:02:55.983Z,54.36
2024-03-20T18:05:27.526Z,54.56
2024-03-20T18:07:58.808Z,54.87
2024-03-20T18:10:30.207Z,55.14
2024-03-20T18:13:01.522Z,55.25
2024-03-20T18:15:33.138Z,55.58
2024-03-20T18:18:05.303Z,55.66
2024-03-20T18:20:40.096Z,55.83
2024-03-20T18:23:11.517Z,56.06
2024-03-20T18:25:43.272Z,56.32
2024-03-20T18:28:15.629Z,56.56
2024-03-20T18:30:50.043Z,56.66
2024-03-20T18:33:21.602Z,56.76
2024-03-20T18:35:53.773Z,57.51
2024-03-20T18:38:25.328Z,57.03
2024-03-20T18:40:55.450Z,57.80
2024-03-20T18:43:27.009Z,57.59
2024-03-20T18:45:59.127Z,58.55
2024-03-20T18:48:30.457Z,58.22
2024-03-20T18:51:01.883Z,58.56
2024-03-20T18:53:35.263Z,59.11
2024-03-20T18:56:09.064Z,58.80
2024-03-20T18:58:42.622Z,59.11
2024-03-20T19:01:17.394Z,59.48
2024-03-20T19:03:49.281Z,59.76
2024-03-20T19:06:23.969Z,59.62
2024-03-20T19:08:55.469Z,59.67
2024-03-20T19:11:27.023Z,60.39
2024-03-20T19:13:57.144Z,60.90
2024-03-20T19:16:28.704Z,60.42
2024-03-20T19:19:00.489Z,61.08
2024-03-20T19:21:32.644Z,60.91
2024-03-20T19:24:04.847Z,61.32
2024-03-20T19:26:36.768Z,61.31
2024-03-20T19:29:08.336Z,61.52
2024-03-20T19:31:39.883Z,61.43
2024-03-20T19:34:15.776Z,61.44
2024-03-20T19:36:47.295Z,63.80
2024-03-20T19:39:21.330Z,69.24
2024-03-20T19:41:53.619Z,61.62
2024-03-20T19:44:25.849Z,52.31
2024-03-20T19:46:58.017Z,50.86
2024-03-20T19:49:29.993Z,52.17
2024-03-20T19:52:03.605Z,53.51
2024-03-20T19:54:35.565Z,54.47
2024-03-20T19:57:07.520Z,55.81
2024-03-20T19:59:39.489Z,56.88
2024-03-20T20:02:12.404Z,57.38
2024-03-20T20:04:44.457Z,58.96
2024-03-20T20:07:17.023Z,59.16
2024-03-20T20:09:49.325Z,59.98
2024-03-20T20:12:20.952Z,60.75
2024-03-20T20:14:50.871Z,61.46
2024-03-20T20:17:22.427Z,61.42
2024-03-20T20:19:52.751Z,68.17
2024-03-20T20:22:24.308Z,67.27
2024-03-20T20:24:57.323Z,54.99
2024-03-20T20:27:29.470Z,52.49
2024-03-20T20:30:04.513Z,53.94
2024-03-20T20:32:38.707Z,55.35
2024-03-20T20:35:12.807Z,56.84
2024-03-20T20:37:44.171Z,57.27
2024-03-20T20:40:23.371Z,57.96
2024-03-20T20:42:55.602Z,58.43
2024-03-20T20:45:27.158Z,59.01
2024-03-20T20:47:59.094Z,59.30
2024-03-20T20:50:30.680Z,59.73
2024-03-20T20:53:00.799Z,60.06
2024-03-20T20:55:36.868Z,59.90
2024-03-20T20:58:10.469Z,60.38
2024-03-20T21:00:42.890Z,61.38
2024-03-20T21:03:32.006Z,61.68
2024-03-20T21:06:25.272Z,67.90
2024-03-20T21:09:25.908Z,64.20
2024-03-20T21:12:15.283Z,53.78
2024-03-20T21:15:04.487Z,52.14
2024-03-20T21:17:53.828Z,53.29
2024-03-20T21:20:26.816Z,54.84
2024-03-20T21:23:00.014Z,55.79
2024-03-20T21:25:30.133Z,56.30
2024-03-20T21:28:01.719Z,56.62
2024-03-20T21:30:33.690Z,57.67
2024-03-20T21:33:05.209Z,57.93
2024-03-20T21:35:36.764Z,58.36
2024-03-20T21:38:09.074Z,59.21
2024-03-20T21:40:40.491Z,60.13
2024-03-20T21:43:13.274Z,60.90
2024-03-20T21:45:45.036Z,60.67
2024-03-20T21:48:15.975Z,61.40
2024-03-20T21:50:50.812Z,60.30
2024-03-20T21:53:23.323Z,61.39
2024-03-20T21:55:57.031Z,61.53
2024-03-20T21:58:29.570Z,66.98
2024-03-20T22:01:01.142Z,67.90
2024-03-20T22:03:33.717Z,58.55
2024-03-20T22:06:05.881Z,51.74
2024-03-20T22:08:46.141Z,51.64
2024-03-20T22:11:28.780Z,52.80
2024-03-20T22:14:06.052Z,54.14
2024-03-20T22:16:44.107Z,55.17
2024-03-20T22:19:16.642Z,56.16
2024-03-20T22:21:47.947Z,56.99
2024-03-20T22:24:19.262Z,57.57
2024-03-20T22:26:50.654Z,58.07
2024-03-20T22:29:22.508Z,58.59
2024-03-20T22:31:54.817Z,58.83
2024-03-20T22:34:26.988Z,59.58
2024-03-20T22:36:58.544Z,60.13
2024-03-20T22:39:30.309Z,60.87
2024-03-20T22:42:00.423Z,61.13
2024-03-20T22:44:31.979Z,60.83
2024-03-20T22:47:04.600Z,61.76
2024-03-20T22:49:35.911Z,66.79
2024-03-20T22:52:08.284Z,66.25
2024-03-20T22:54:40.859Z,55.46
2024-03-20T22:57:12.620Z,52.79
2024-03-20T22:59:44.804Z,53.80
2024-03-20T23:02:16.346Z,55.20
2024-03-20T23:04:48.240Z,56.03
2024-03-20T23:07:19.741Z,56.83
2024-03-20T23:09:54.437Z,58.04
2024-03-20T23:12:28.303Z,58.64
2024-03-20T23:14:59.859Z,59.14
2024-03-20T23:17:32.037Z,59.61
2024-03-20T23:20:03.792Z,60.77
2024-03-20T23:22:35.756Z,60.59
2024-03-20T23:25:11.958Z,61.19
2024-03-20T23:27:45.628Z,62.07
2024-03-20T23:30:17.794Z,68.24
2024-03-20T23:32:50.723Z,64.86
2024-03-20T23:35:23.360Z,55.33
2024-03-20T23:37:54.921Z,52.71
2024-03-20T23:40:29.021Z,54.00
2024-03-20T23:43:00.500Z,55.24
2024-03-20T23:45:32.248Z,56.54
2024-03-20T23:48:03.394Z,57.53
2024-03-20T23:50:34.952Z,57.68
2024-03-20T23:53:07.122Z,58.78
2024-03-20T23:55:38.402Z,59.92
2024-03-20T23:58:10.233Z,60.41
